Search for airport 
image banner adimage banner adimage banner ad
image banner ad

CN63 - Exeter

Located in Exeter, United States

ICAO - CN63, IATA -

Data provided by Airmate  

General information

Coordinates: N36°14'33" W119°8'58"
Elevation is 344 feet MSL.
Magnetic variation is 15° East
View others Airports in California

Operational data

Special qualification required
Current time UTC:
Current local time:
Weather at : KVIS - Visalia Muni ( 23 km )
METAR: KVIS 231356Z AUTO 00000KT 9SM CLR 14/11 A2992 RMK AO2 SLP137 T01440111
TAF: KVIS 231132Z 2312/2412 VRB04KT 6SM HZ SKC
View NOTAMs / SUP AIP / TFR affecting this airport [VIEW]
Communications frequencies: [VIEW]

Runways:

RWY identifierQFULength (ft)Width (ft)SurfaceLDA (ft)
13231540OTHER
31231540OTHER

Airport contact information

Address: Exeter United States

Satellite view of CN63